sensor_id;sensor_type;location;lat;lon;timestamp;P1;durP1;ratioP1;P2;durP2;ratioP2
10880;SDS011;5493;48.884;8.338;2024-03-29T00:00:35;3.47;;;1.60;;
10880;SDS011;5493;48.884;8.338;2024-03-29T00:03:01;2.93;;;1.60;;
10880;SDS011;5493;48.884;8.338;2024-03-29T00:05:27;3.80;;;1.70;;
10880;SDS011;5493;48.884;8.338;2024-03-29T00:07:52;2.03;;;1.23;;
10880;SDS011;5493;48.884;8.338;2024-03-29T00:10:18;1.37;;;0.80;;
10880;SDS011;5493;48.884;8.338;2024-03-29T00:12:43;2.83;;;1.20;;
10880;SDS011;5493;48.884;8.338;2024-03-29T00:15:10;3.33;;;1.67;;
10880;SDS011;5493;48.884;8.338;2024-03-29T00:17:36;1.20;;;1.10;;
10880;SDS011;5493;48.884;8.338;2024-03-29T00:20:02;2.13;;;1.03;;
10880;SDS011;5493;48.884;8.338;2024-03-29T00:22:28;2.73;;;1.00;;
10880;SDS011;5493;48.884;8.338;2024-03-29T00:24:53;1.87;;;1.03;;
10880;SDS011;5493;48.884;8.338;2024-03-29T00:27:19;2.53;;;1.43;;
10880;SDS011;5493;48.884;8.338;2024-03-29T00:29:44;2.80;;;1.37;;
10880;SDS011;5493;48.884;8.338;2024-03-29T00:32:11;3.27;;;1.33;;
10880;SDS011;5493;48.884;8.338;2024-03-29T00:34:37;3.33;;;1.33;;
10880;SDS011;5493;48.884;8.338;2024-03-29T00:37:03;2.20;;;1.33;;
10880;SDS011;5493;48.884;8.338;2024-03-29T00:39:29;1.33;;;1.00;;
10880;SDS011;5493;48.884;8.338;2024-03-29T00:41:54;1.43;;;1.03;;
10880;SDS011;5493;48.884;8.338;2024-03-29T00:44:20;1.53;;;1.00;;
10880;SDS011;5493;48.884;8.338;2024-03-29T00:46:45;3.10;;;0.97;;
10880;SDS011;5493;48.884;8.338;2024-03-29T00:49:12;2.67;;;1.17;;
10880;SDS011;5493;48.884;8.338;2024-03-29T00:51:38;1.90;;;1.10;;
10880;SDS011;5493;48.884;8.338;2024-03-29T00:54:03;1.63;;;1.20;;
10880;SDS011;5493;48.884;8.338;2024-03-29T00:56:29;3.47;;;1.00;;
10880;SDS011;5493;48.884;8.338;2024-03-29T00:58:54;1.27;;;0.90;;
10880;SDS011;5493;48.884;8.338;2024-03-29T01:01:20;1.53;;;1.07;;
10880;SDS011;5493;48.884;8.338;2024-03-29T01:03:46;1.50;;;1.20;;
10880;SDS011;5493;48.884;8.338;2024-03-29T01:06:13;1.93;;;1.00;;
10880;SDS011;5493;48.884;8.338;2024-03-29T01:08:38;1.77;;;1.10;;
10880;SDS011;5493;48.884;8.338;2024-03-29T01:11:04;1.67;;;1.00;;
10880;SDS011;5493;48.884;8.338;2024-03-29T01:13:29;2.30;;;1.00;;
10880;SDS011;5493;48.884;8.338;2024-03-29T01:15:55;1.40;;;1.20;;
10880;SDS011;5493;48.884;8.338;2024-03-29T01:18:20;3.90;;;1.13;;
10880;SDS011;5493;48.884;8.338;2024-03-29T01:20:46;1.27;;;0.80;;
10880;SDS011;5493;48.884;8.338;2024-03-29T01:23:13;1.87;;;1.00;;
10880;SDS011;5493;48.884;8.338;2024-03-29T01:25:38;1.13;;;0.83;;
10880;SDS011;5493;48.884;8.338;2024-03-29T01:28:04;1.23;;;0.90;;
10880;SDS011;5493;48.884;8.338;2024-03-29T01:30:30;2.23;;;1.10;;
10880;SDS011;5493;48.884;8.338;2024-03-29T01:32:55;2.47;;;0.80;;
10880;SDS011;5493;48.884;8.338;2024-03-29T01:35:21;3.23;;;1.07;;
10880;SDS011;5493;48.884;8.338;2024-03-29T01:37:47;2.90;;;1.17;;
10880;SDS011;5493;48.884;8.338;2024-03-29T01:40:13;2.97;;;1.37;;
10880;SDS011;5493;48.884;8.338;2024-03-29T01:42:39;1.63;;;0.93;;
10880;SDS011;5493;48.884;8.338;2024-03-29T01:45:05;1.63;;;1.07;;
10880;SDS011;5493;48.884;8.338;2024-03-29T01:47:33;6.57;;;1.10;;
10880;SDS011;5493;48.884;8.338;2024-03-29T01:49:59;2.87;;;1.10;;
10880;SDS011;5493;48.884;8.338;2024-03-29T01:52:26;1.33;;;0.93;;
10880;SDS011;5493;48.884;8.338;2024-03-29T01:54:54;2.37;;;1.40;;
10880;SDS011;5493;48.884;8.338;2024-03-29T01:57:23;1.67;;;0.43;;
10880;SDS011;5493;48.884;8.338;2024-03-29T01:59:50;1.40;;;0.60;;
10880;SDS011;5493;48.884;8.338;2024-03-29T02:02:17;0.30;;;0.30;;
10880;SDS011;5493;48.884;8.338;2024-03-29T02:04:44;0.73;;;0.30;;
10880;SDS011;5493;48.884;8.338;2024-03-29T02:07:11;0.30;;;0.30;;
10880;SDS011;5493;48.884;8.338;2024-03-29T02:09:37;1.57;;;0.60;;
10880;SDS011;5493;48.884;8.338;2024-03-29T02:12:04;0.30;;;0.20;;
10880;SDS011;5493;48.884;8.338;2024-03-29T02:14:32;0.67;;;0.40;;
10880;SDS011;5493;48.884;8.338;2024-03-29T02:16:58;1.60;;;0.40;;
10880;SDS011;5493;48.884;8.338;2024-03-29T02:19:25;1.00;;;0.20;;
10880;SDS011;5493;48.884;8.338;2024-03-29T02:21:51;5.60;;;0.83;;
10880;SDS011;5493;48.884;8.338;2024-03-29T02:24:24;1.20;;;0.20;;
10880;SDS011;5493;48.884;8.338;2024-03-29T02:26:52;0.63;;;0.40;;
10880;SDS011;5493;48.884;8.338;2024-03-29T02:29:19;0.67;;;0.30;;
10880;SDS011;5493;48.884;8.338;2024-03-29T02:31:46;0.80;;;0.30;;
10880;SDS011;5493;48.884;8.338;2024-03-29T02:34:13;0.93;;;0.33;;
10880;SDS011;5493;48.884;8.338;2024-03-29T02:36:38;0.87;;;0.30;;
10880;SDS011;5493;48.884;8.338;2024-03-29T02:39:06;0.50;;;0.30;;
10880;SDS011;5493;48.884;8.338;2024-03-29T02:41:34;0.90;;;0.30;;
10880;SDS011;5493;48.884;8.338;2024-03-29T02:44:00;0.77;;;0.33;;
10880;SDS011;5493;48.884;8.338;2024-03-29T02:46:27;0.30;;;0.30;;
10880;SDS011;5493;48.884;8.338;2024-03-29T02:48:53;0.60;;;0.40;;
10880;SDS011;5493;48.884;8.338;2024-03-29T02:51:19;0.20;;;0.20;;
10880;SDS011;5493;48.884;8.338;2024-03-29T02:53:46;0.33;;;0.20;;
10880;SDS011;5493;48.884;8.338;2024-03-29T02:56:11;1.50;;;0.50;;
10880;SDS011;5493;48.884;8.338;2024-03-29T02:58:40;0.30;;;0.20;;
10880;SDS011;5493;48.884;8.338;2024-03-29T03:01:06;0.20;;;0.20;;
10880;SDS011;5493;48.884;8.338;2024-03-29T03:03:34;0.77;;;0.30;;
10880;SDS011;5493;48.884;8.338;2024-03-29T03:06:00;0.40;;;0.30;;
10880;SDS011;5493;48.884;8.338;2024-03-29T03:08:27;0.37;;;0.10;;
10880;SDS011;5493;48.884;8.338;2024-03-29T03:11:12;0.20;;;0.20;;
10880;SDS011;5493;48.884;8.338;2024-03-29T03:13:38;0.80;;;0.30;;
10880;SDS011;5493;48.884;8.338;2024-03-29T03:16:06;0.90;;;0.40;;
10880;SDS011;5493;48.884;8.338;2024-03-29T03:18:33;0.50;;;0.30;;
10880;SDS011;5493;48.884;8.338;2024-03-29T03:20:58;0.60;;;0.30;;
10880;SDS011;5493;48.884;8.338;2024-03-29T03:23:25;1.47;;;0.30;;
10880;SDS011;5493;48.884;8.338;2024-03-29T03:25:55;0.50;;;0.20;;
10880;SDS011;5493;48.884;8.338;2024-03-29T03:28:22;0.60;;;0.33;;
10880;SDS011;5493;48.884;8.338;2024-03-29T03:30:48;0.30;;;0.20;;
10880;SDS011;5493;48.884;8.338;2024-03-29T03:33:15;1.20;;;0.27;;
10880;SDS011;5493;48.884;8.338;2024-03-29T03:35:42;0.60;;;0.30;;
10880;SDS011;5493;48.884;8.338;2024-03-29T03:38:08;0.67;;;0.30;;
10880;SDS011;5493;48.884;8.338;2024-03-29T03:40:35;0.20;;;0.20;;
10880;SDS011;5493;48.884;8.338;2024-03-29T03:43:01;0.10;;;0.10;;
10880;SDS011;5493;48.884;8.338;2024-03-29T03:45:27;0.13;;;0.13;;
10880;SDS011;5493;48.884;8.338;2024-03-29T03:47:53;0.30;;;0.20;;
10880;SDS011;5493;48.884;8.338;2024-03-29T03:50:21;1.07;;;0.30;;
10880;SDS011;5493;48.884;8.338;2024-03-29T03:52:46;0.30;;;0.20;;
10880;SDS011;5493;48.884;8.338;2024-03-29T03:55:13;0.20;;;0.20;;
10880;SDS011;5493;48.884;8.338;2024-03-29T03:57:41;0.37;;;0.23;;
10880;SDS011;5493;48.884;8.338;2024-03-29T04:00:08;0.93;;;0.17;;
10880;SDS011;5493;48.884;8.338;2024-03-29T04:02:35;0.53;;;0.20;;
10880;SDS011;5493;48.884;8.338;2024-03-29T04:05:01;0.17;;;0.17;;
10880;SDS011;5493;48.884;8.338;2024-03-29T04:07:28;0.70;;;0.20;;
10880;SDS011;5493;48.884;8.338;2024-03-29T04:09:54;0.90;;;0.40;;
10880;SDS011;5493;48.884;8.338;2024-03-29T04:12:20;1.57;;;0.70;;
10880;SDS011;5493;48.884;8.338;2024-03-29T04:14:46;0.73;;;0.50;;
10880;SDS011;5493;48.884;8.338;2024-03-29T04:17:12;0.67;;;0.20;;
10880;SDS011;5493;48.884;8.338;2024-03-29T04:19:38;1.07;;;0.30;;
10880;SDS011;5493;48.884;8.338;2024-03-29T04:22:05;0.20;;;0.10;;
10880;SDS011;5493;48.884;8.338;2024-03-29T04:24:33;1.37;;;0.20;;
10880;SDS011;5493;48.884;8.338;2024-03-29T04:26:58;0.40;;;0.40;;
10880;SDS011;5493;48.884;8.338;2024-03-29T04:29:25;1.33;;;0.30;;
10880;SDS011;5493;48.884;8.338;2024-03-29T04:31:50;0.63;;;0.33;;
10880;SDS011;5493;48.884;8.338;2024-03-29T04:34:17;2.37;;;0.50;;
10880;SDS011;5493;48.884;8.338;2024-03-29T04:36:43;0.50;;;0.47;;
10880;SDS011;5493;48.884;8.338;2024-03-29T04:39:09;0.67;;;0.50;;
10880;SDS011;5493;48.884;8.338;2024-03-29T04:41:37;0.80;;;0.70;;
10880;SDS011;5493;48.884;8.338;2024-03-29T04:44:04;1.27;;;0.80;;
10880;SDS011;5493;48.884;8.338;2024-03-29T04:46:30;1.13;;;0.73;;
10880;SDS011;5493;48.884;8.338;2024-03-29T04:48:57;1.20;;;0.70;;
10880;SDS011;5493;48.884;8.338;2024-03-29T04:51:24;2.23;;;0.43;;
10880;SDS011;5493;48.884;8.338;2024-03-29T04:53:50;2.07;;;0.70;;
10880;SDS011;5493;48.884;8.338;2024-03-29T04:56:17;1.37;;;0.60;;
10880;SDS011;5493;48.884;8.338;2024-03-29T04:58:46;0.70;;;0.70;;
10880;SDS011;5493;48.884;8.338;2024-03-29T05:01:12;0.53;;;0.50;;
10880;SDS011;5493;48.884;8.338;2024-03-29T05:03:40;1.03;;;0.73;;
10880;SDS011;5493;48.884;8.338;2024-03-29T05:06:06;3.33;;;0.70;;
10880;SDS011;5493;48.884;8.338;2024-03-29T05:08:33;0.97;;;0.60;;
10880;SDS011;5493;48.884;8.338;2024-03-29T05:10:59;1.63;;;0.70;;
10880;SDS011;5493;48.884;8.338;2024-03-29T05:13:25;0.90;;;0.80;;
10880;SDS011;5493;48.884;8.338;2024-03-29T05:15:53;1.40;;;0.77;;
10880;SDS011;5493;48.884;8.338;2024-03-29T05:18:20;1.13;;;0.70;;
10880;SDS011;5493;48.884;8.338;2024-03-29T05:20:46;1.53;;;0.50;;
10880;SDS011;5493;48.884;8.338;2024-03-29T05:23:15;1.10;;;0.70;;
10880;SDS011;5493;48.884;8.338;2024-03-29T05:25:42;1.40;;;0.57;;
10880;SDS011;5493;48.884;8.338;2024-03-29T05:28:08;0.93;;;0.53;;
10880;SDS011;5493;48.884;8.338;2024-03-29T05:30:35;1.00;;;0.80;;
10880;SDS011;5493;48.884;8.338;2024-03-29T05:33:04;0.90;;;0.83;;
10880;SDS011;5493;48.884;8.338;2024-03-29T05:35:34;1.27;;;0.90;;
10880;SDS011;5493;48.884;8.338;2024-03-29T05:38:01;0.60;;;0.60;;
10880;SDS011;5493;48.884;8.338;2024-03-29T05:40:28;3.17;;;0.90;;
10880;SDS011;5493;48.884;8.338;2024-03-29T05:42:57;3.93;;;0.90;;
10880;SDS011;5493;48.884;8.338;2024-03-29T05:45:24;0.93;;;0.80;;
10880;SDS011;5493;48.884;8.338;2024-03-29T05:47:53;2.13;;;0.97;;
10880;SDS011;5493;48.884;8.338;2024-03-29T05:50:21;1.37;;;1.07;;
10880;SDS011;5493;48.884;8.338;2024-03-29T05:52:48;2.80;;;1.50;;
10880;SDS011;5493;48.884;8.338;2024-03-29T05:55:15;2.00;;;1.20;;
10880;SDS011;5493;48.884;8.338;2024-03-29T05:57:43;1.63;;;1.20;;
10880;SDS011;5493;48.884;8.338;2024-03-29T06:00:10;1.80;;;1.13;;
10880;SDS011;5493;48.884;8.338;2024-03-29T06:02:38;2.23;;;1.33;;
10880;SDS011;5493;48.884;8.338;2024-03-29T06:05:06;1.20;;;1.00;;
10880;SDS011;5493;48.884;8.338;2024-03-29T06:07:35;3.27;;;1.60;;
10880;SDS011;5493;48.884;8.338;2024-03-29T06:10:01;1.43;;;1.33;;
10880;SDS011;5493;48.884;8.338;2024-03-29T06:12:30;2.20;;;1.37;;
10880;SDS011;5493;48.884;8.338;2024-03-29T06:14:56;1.80;;;1.43;;
10880;SDS011;5493;48.884;8.338;2024-03-29T06:17:41;3.07;;;1.40;;
10880;SDS011;5493;48.884;8.338;2024-03-29T06:20:07;2.40;;;1.37;;
10880;SDS011;5493;48.884;8.338;2024-03-29T06:22:36;1.93;;;1.40;;
10880;SDS011;5493;48.884;8.338;2024-03-29T06:25:03;3.63;;;1.80;;
10880;SDS011;5493;48.884;8.338;2024-03-29T06:27:30;2.27;;;1.50;;
10880;SDS011;5493;48.884;8.338;2024-03-29T06:29:57;2.97;;;1.50;;
10880;SDS011;5493;48.884;8.338;2024-03-29T06:32:24;2.77;;;1.60;;
10880;SDS011;5493;48.884;8.338;2024-03-29T06:34:50;2.30;;;1.50;;
10880;SDS011;5493;48.884;8.338;2024-03-29T06:37:17;3.33;;;1.60;;
10880;SDS011;5493;48.884;8.338;2024-03-29T06:39:47;3.17;;;1.57;;
10880;SDS011;5493;48.884;8.338;2024-03-29T06:42:13;2.73;;;1.70;;
10880;SDS011;5493;48.884;8.338;2024-03-29T06:44:40;2.70;;;1.70;;
10880;SDS011;5493;48.884;8.338;2024-03-29T06:47:07;3.37;;;1.57;;
10880;SDS011;5493;48.884;8.338;2024-03-29T06:49:33;2.87;;;1.77;;
10880;SDS011;5493;48.884;8.338;2024-03-29T06:52:00;2.67;;;1.50;;
10880;SDS011;5493;48.884;8.338;2024-03-29T06:54:26;2.33;;;1.60;;
10880;SDS011;5493;48.884;8.338;2024-03-29T06:56:55;3.77;;;1.83;;
10880;SDS011;5493;48.884;8.338;2024-03-29T06:59:22;2.73;;;2.07;;
10880;SDS011;5493;48.884;8.338;2024-03-29T07:01:49;2.00;;;1.57;;
10880;SDS011;5493;48.884;8.338;2024-03-29T07:04:17;1.80;;;1.20;;
10880;SDS011;5493;48.884;8.338;2024-03-29T07:06:44;4.27;;;1.77;;
10880;SDS011;5493;48.884;8.338;2024-03-29T07:09:12;2.40;;;1.77;;
10880;SDS011;5493;48.884;8.338;2024-03-29T07:11:39;3.20;;;1.80;;
10880;SDS011;5493;48.884;8.338;2024-03-29T07:14:07;3.70;;;1.43;;
10880;SDS011;5493;48.884;8.338;2024-03-29T07:16:34;3.73;;;1.50;;
10880;SDS011;5493;48.884;8.338;2024-03-29T07:19:00;2.73;;;1.67;;
10880;SDS011;5493;48.884;8.338;2024-03-29T07:21:28;3.43;;;1.80;;
10880;SDS011;5493;48.884;8.338;2024-03-29T07:23:54;3.90;;;2.10;;
10880;SDS011;5493;48.884;8.338;2024-03-29T07:26:21;2.90;;;2.10;;
10880;SDS011;5493;48.884;8.338;2024-03-29T07:28:47;3.10;;;2.23;;
10880;SDS011;5493;48.884;8.338;2024-03-29T07:31:15;4.93;;;1.80;;
10880;SDS011;5493;48.884;8.338;2024-03-29T07:33:42;3.33;;;1.97;;
10880;SDS011;5493;48.884;8.338;2024-03-29T07:36:09;5.33;;;2.50;;
10880;SDS011;5493;48.884;8.338;2024-03-29T07:38:36;4.00;;;2.47;;
10880;SDS011;5493;48.884;8.338;2024-03-29T07:41:03;3.37;;;2.30;;
10880;SDS011;5493;48.884;8.338;2024-03-29T07:43:36;5.93;;;3.23;;
10880;SDS011;5493;48.884;8.338;2024-03-29T07:46:05;5.03;;;3.70;;
10880;SDS011;5493;48.884;8.338;2024-03-29T07:48:35;5.37;;;3.87;;
10880;SDS011;5493;48.884;8.338;2024-03-29T07:51:02;8.37;;;5.00;;
10880;SDS011;5493;48.884;8.338;2024-03-29T07:53:29;8.87;;;4.97;;
10880;SDS011;5493;48.884;8.338;2024-03-29T07:55:55;7.20;;;4.33;;
10880;SDS011;5493;48.884;8.338;2024-03-29T07:58:22;5.80;;;3.83;;
10880;SDS011;5493;48.884;8.338;2024-03-29T08:00:49;4.93;;;3.43;;
10880;SDS011;5493;48.884;8.338;2024-03-29T08:03:15;4.90;;;3.10;;
10880;SDS011;5493;48.884;8.338;2024-03-29T08:05:53;4.07;;;3.03;;
10880;SDS011;5493;48.884;8.338;2024-03-29T08:08:21;6.43;;;4.30;;
10880;SDS011;5493;48.884;8.338;2024-03-29T08:10:50;6.13;;;4.17;;
10880;SDS011;5493;48.884;8.338;2024-03-29T08:13:16;9.87;;;6.27;;
10880;SDS011;5493;48.884;8.338;2024-03-29T08:15:45;8.90;;;5.50;;
10880;SDS011;5493;48.884;8.338;2024-03-29T08:18:12;6.87;;;4.93;;
10880;SDS011;5493;48.884;8.338;2024-03-29T08:20:38;7.37;;;5.30;;
10880;SDS011;5493;48.884;8.338;2024-03-29T08:23:06;7.37;;;4.47;;
10880;SDS011;5493;48.884;8.338;2024-03-29T08:25:32;5.90;;;3.60;;
10880;SDS011;5493;48.884;8.338;2024-03-29T08:27:59;4.20;;;2.87;;
10880;SDS011;5493;48.884;8.338;2024-03-29T08:30:26;3.93;;;2.60;;
10880;SDS011;5493;48.884;8.338;2024-03-29T08:32:57;4.83;;;2.37;;
10880;SDS011;5493;48.884;8.338;2024-03-29T08:35:24;7.30;;;2.53;;
10880;SDS011;5493;48.884;8.338;2024-03-29T08:37:51;7.10;;;2.80;;
10880;SDS011;5493;48.884;8.338;2024-03-29T08:40:19;3.80;;;3.00;;
10880;SDS011;5493;48.884;8.338;2024-03-29T08:42:46;3.27;;;2.70;;
10880;SDS011;5493;48.884;8.338;2024-03-29T08:45:13;3.57;;;2.13;;
10880;SDS011;5493;48.884;8.338;2024-03-29T08:47:40;2.13;;;1.60;;
10880;SDS011;5493;48.884;8.338;2024-03-29T08:50:07;1.60;;;1.23;;
10880;SDS011;5493;48.884;8.338;2024-03-29T08:52:34;2.40;;;1.57;;
10880;SDS011;5493;48.884;8.338;2024-03-29T08:55:00;0.67;;;0.67;;
10880;SDS011;5493;48.884;8.338;2024-03-29T08:57:28;1.83;;;1.10;;
10880;SDS011;5493;48.884;8.338;2024-03-29T08:59:54;2.53;;;1.00;;
10880;SDS011;5493;48.884;8.338;2024-03-29T09:02:20;1.07;;;0.77;;
10880;SDS011;5493;48.884;8.338;2024-03-29T09:04:47;1.83;;;1.07;;
10880;SDS011;5493;48.884;8.338;2024-03-29T09:07:14;1.23;;;0.90;;
10880;SDS011;5493;48.884;8.338;2024-03-29T09:09:40;0.80;;;0.80;;
10880;SDS011;5493;48.884;8.338;2024-03-29T09:12:07;0.83;;;0.70;;
10880;SDS011;5493;48.884;8.338;2024-03-29T09:14:35;0.67;;;0.47;;
10880;SDS011;5493;48.884;8.338;2024-03-29T09:17:01;0.97;;;0.60;;
10880;SDS011;5493;48.884;8.338;2024-03-29T09:19:28;0.80;;;0.80;;
10880;SDS011;5493;48.884;8.338;2024-03-29T09:21:56;2.93;;;0.90;;
10880;SDS011;5493;48.884;8.338;2024-03-29T09:24:22;1.27;;;0.83;;
10880;SDS011;5493;48.884;8.338;2024-03-29T09:26:51;1.23;;;0.83;;
10880;SDS011;5493;48.884;8.338;2024-03-29T09:29:17;0.50;;;0.40;;
10880;SDS011;5493;48.884;8.338;2024-03-29T09:31:46;0.80;;;0.80;;
10880;SDS011;5493;48.884;8.338;2024-03-29T09:34:13;0.60;;;0.60;;
10880;SDS011;5493;48.884;8.338;2024-03-29T09:36:39;0.90;;;0.50;;
10880;SDS011;5493;48.884;8.338;2024-03-29T09:39:06;0.90;;;0.70;;
10880;SDS011;5493;48.884;8.338;2024-03-29T09:41:33;0.80;;;0.70;;
10880;SDS011;5493;48.884;8.338;2024-03-29T09:44:04;0.50;;;0.50;;
10880;SDS011;5493;48.884;8.338;2024-03-29T09:46:32;1.20;;;0.60;;
10880;SDS011;5493;48.884;8.338;2024-03-29T09:49:01;0.97;;;0.70;;
10880;SDS011;5493;48.884;8.338;2024-03-29T09:51:28;2.03;;;1.20;;
10880;SDS011;5493;48.884;8.338;2024-03-29T09:53:55;1.93;;;1.00;;
10880;SDS011;5493;48.884;8.338;2024-03-29T09:56:25;2.50;;;0.80;;
10880;SDS011;5493;48.884;8.338;2024-03-29T09:58:52;0.80;;;0.70;;
10880;SDS011;5493;48.884;8.338;2024-03-29T10:01:19;0.83;;;0.67;;
10880;SDS011;5493;48.884;8.338;2024-03-29T10:03:48;1.70;;;1.30;;
10880;SDS011;5493;48.884;8.338;2024-03-29T10:06:17;3.13;;;1.97;;
10880;SDS011;5493;48.884;8.338;2024-03-29T10:08:45;1.50;;;1.40;;
10880;SDS011;5493;48.884;8.338;2024-03-29T10:11:12;0.87;;;0.87;;
10880;SDS011;5493;48.884;8.338;2024-03-29T10:13:41;2.40;;;1.67;;
10880;SDS011;5493;48.884;8.338;2024-03-29T10:16:09;2.40;;;1.80;;
10880;SDS011;5493;48.884;8.338;2024-03-29T10:18:36;2.83;;;2.30;;
10880;SDS011;5493;48.884;8.338;2024-03-29T10:21:03;5.73;;;3.63;;
10880;SDS011;5493;48.884;8.338;2024-03-29T10:23:33;11.07;;;8.03;;
10880;SDS011;5493;48.884;8.338;2024-03-29T10:26:01;25.70;;;15.87;;
10880;SDS011;5493;48.884;8.338;2024-03-29T10:28:29;12.97;;;8.87;;
10880;SDS011;5493;48.884;8.338;2024-03-29T10:30:58;4.57;;;2.40;;
10880;SDS011;5493;48.884;8.338;2024-03-29T10:33:27;4.87;;;3.27;;
10880;SDS011;5493;48.884;8.338;2024-03-29T10:35:54;3.30;;;2.90;;
10880;SDS011;5493;48.884;8.338;2024-03-29T10:38:22;4.03;;;2.00;;
10880;SDS011;5493;48.884;8.338;2024-03-29T10:40:50;3.07;;;1.20;;
10880;SDS011;5493;48.884;8.338;2024-03-29T10:43:17;1.27;;;1.03;;
10880;SDS011;5493;48.884;8.338;2024-03-29T10:45:45;1.50;;;1.23;;
10880;SDS011;5493;48.884;8.338;2024-03-29T10:48:14;2.93;;;1.37;;
10880;SDS011;5493;48.884;8.338;2024-03-29T10:50:42;1.70;;;1.40;;
10880;SDS011;5493;48.884;8.338;2024-03-29T10:53:09;2.20;;;2.00;;
10880;SDS011;5493;48.884;8.338;2024-03-29T10:55:37;2.53;;;2.33;;
10880;SDS011;5493;48.884;8.338;2024-03-29T10:58:05;2.90;;;2.33;;
10880;SDS011;5493;48.884;8.338;2024-03-29T11:00:32;8.23;;;1.65;;
10880;SDS011;5493;48.884;8.338;2024-03-29T11:03:05;1.33;;;1.13;;
10880;SDS011;5493;48.884;8.338;2024-03-29T11:05:41;2.60;;;1.20;;
10880;SDS011;5493;48.884;8.338;2024-03-29T11:08:11;2.73;;;2.40;;
10880;SDS011;5493;48.884;8.338;2024-03-29T11:10:40;5.60;;;2.83;;
10880;SDS011;5493;48.884;8.338;2024-03-29T11:13:15;2.00;;;1.30;;
10880;SDS011;5493;48.884;8.338;2024-03-29T11:15:46;5.33;;;3.33;;
10880;SDS011;5493;48.884;8.338;2024-03-29T11:18:12;1.93;;;1.40;;
10880;SDS011;5493;48.884;8.338;2024-03-29T11:20:41;1.13;;;1.03;;
10880;SDS011;5493;48.884;8.338;2024-03-29T11:23:16;1.42;;;0.77;;
10880;SDS011;5493;48.884;8.338;2024-03-29T11:25:43;1.73;;;1.20;;
10880;SDS011;5493;48.884;8.338;2024-03-29T11:28:12;2.28;;;1.70;;
10880;SDS011;5493;48.884;8.338;2024-03-29T11:30:43;3.70;;;2.13;;
10880;SDS011;5493;48.884;8.338;2024-03-29T11:33:27;1.20;;;0.90;;
10880;SDS011;5493;48.884;8.338;2024-03-29T11:35:55;4.27;;;2.70;;
10880;SDS011;5493;48.884;8.338;2024-03-29T11:38:22;3.37;;;2.57;;
10880;SDS011;5493;48.884;8.338;2024-03-29T11:41:00;2.20;;;1.85;;
10880;SDS011;5493;48.884;8.338;2024-03-29T11:43:32;2.45;;;1.67;;
10880;SDS011;5493;48.884;8.338;2024-03-29T11:45:59;2.17;;;1.48;;
10880;SDS011;5493;48.884;8.338;2024-03-29T11:48:28;1.90;;;0.82;;
10880;SDS011;5493;48.884;8.338;2024-03-29T11:50:56;1.13;;;0.50;;
10880;SDS011;5493;48.884;8.338;2024-03-29T11:53:23;2.13;;;0.60;;
10880;SDS011;5493;48.884;8.338;2024-03-29T11:55:50;1.48;;;0.80;;
10880;SDS011;5493;48.884;8.338;2024-03-29T11:58:19;1.02;;;0.68;;
10880;SDS011;5493;48.884;8.338;2024-03-29T12:00:48;0.88;;;0.77;;
10880;SDS011;5493;48.884;8.338;2024-03-29T12:03:15;1.10;;;0.85;;
10880;SDS011;5493;48.884;8.338;2024-03-29T12:05:42;1.25;;;0.70;;
10880;SDS011;5493;48.884;8.338;2024-03-29T12:08:09;0.75;;;0.60;;
10880;SDS011;5493;48.884;8.338;2024-03-29T12:10:36;1.23;;;1.10;;
10880;SDS011;5493;48.884;8.338;2024-03-29T12:13:03;2.35;;;1.10;;
10880;SDS011;5493;48.884;8.338;2024-03-29T12:15:31;1.63;;;1.20;;
10880;SDS011;5493;48.884;8.338;2024-03-29T12:17:59;4.15;;;1.73;;
10880;SDS011;5493;48.884;8.338;2024-03-29T12:20:28;1.73;;;1.10;;
10880;SDS011;5493;48.884;8.338;2024-03-29T12:22:55;1.38;;;1.27;;
10880;SDS011;5493;48.884;8.338;2024-03-29T12:25:22;1.73;;;1.10;;
10880;SDS011;5493;48.884;8.338;2024-03-29T12:27:48;1.15;;;0.85;;
10880;SDS011;5493;48.884;8.338;2024-03-29T12:30:15;2.38;;;0.88;;
10880;SDS011;5493;48.884;8.338;2024-03-29T12:32:41;1.20;;;1.07;;
10880;SDS011;5493;48.884;8.338;2024-03-29T12:35:10;1.80;;;1.47;;
10880;SDS011;5493;48.884;8.338;2024-03-29T12:37:37;3.70;;;1.63;;
10880;SDS011;5493;48.884;8.338;2024-03-29T12:40:04;2.33;;;1.20;;
10880;SDS011;5493;48.884;8.338;2024-03-29T12:42:37;1.40;;;0.60;;
10880;SDS011;5493;48.884;8.338;2024-03-29T12:45:04;2.23;;;0.80;;
10880;SDS011;5493;48.884;8.338;2024-03-29T12:47:31;0.67;;;0.50;;
10880;SDS011;5493;48.884;8.338;2024-03-29T12:49:59;1.17;;;0.63;;
10880;SDS011;5493;48.884;8.338;2024-03-29T12:52:27;1.43;;;0.80;;
10880;SDS011;5493;48.884;8.338;2024-03-29T12:54:53;2.13;;;1.57;;
10880;SDS011;5493;48.884;8.338;2024-03-29T12:57:21;1.50;;;1.10;;
10880;SDS011;5493;48.884;8.338;2024-03-29T12:59:48;2.13;;;0.90;;
10880;SDS011;5493;48.884;8.338;2024-03-29T13:02:15;1.77;;;1.00;;
10880;SDS011;5493;48.884;8.338;2024-03-29T13:04:41;4.53;;;1.43;;
10880;SDS011;5493;48.884;8.338;2024-03-29T13:07:09;1.87;;;1.40;;
10880;SDS011;5493;48.884;8.338;2024-03-29T13:09:40;3.87;;;1.90;;
10880;SDS011;5493;48.884;8.338;2024-03-29T13:12:07;6.57;;;4.40;;
10880;SDS011;5493;48.884;8.338;2024-03-29T13:14:33;3.67;;;2.10;;
10880;SDS011;5493;48.884;8.338;2024-03-29T13:17:00;1.60;;;1.00;;
10880;SDS011;5493;48.884;8.338;2024-03-29T13:19:27;2.27;;;1.10;;
10880;SDS011;5493;48.884;8.338;2024-03-29T13:21:53;2.63;;;0.87;;
10880;SDS011;5493;48.884;8.338;2024-03-29T13:24:20;1.40;;;0.83;;
10880;SDS011;5493;48.884;8.338;2024-03-29T13:26:48;1.67;;;0.87;;
10880;SDS011;5493;48.884;8.338;2024-03-29T13:29:14;3.07;;;1.20;;
10880;SDS011;5493;48.884;8.338;2024-03-29T13:31:41;5.43;;;1.33;;
10880;SDS011;5493;48.884;8.338;2024-03-29T13:34:07;1.30;;;0.70;;
10880;SDS011;5493;48.884;8.338;2024-03-29T13:36:38;0.43;;;0.43;;
10880;SDS011;5493;48.884;8.338;2024-03-29T13:39:04;3.57;;;0.73;;
10880;SDS011;5493;48.884;8.338;2024-03-29T13:41:32;1.40;;;1.07;;
10880;SDS011;5493;48.884;8.338;2024-03-29T13:44:01;4.90;;;1.37;;
10880;SDS011;5493;48.884;8.338;2024-03-29T13:46:30;5.60;;;3.17;;
10880;SDS011;5493;48.884;8.338;2024-03-29T13:48:57;11.33;;;5.90;;
10880;SDS011;5493;48.884;8.338;2024-03-29T13:51:24;5.50;;;3.63;;
10880;SDS011;5493;48.884;8.338;2024-03-29T13:53:50;32.13;;;16.97;;
10880;SDS011;5493;48.884;8.338;2024-03-29T13:56:19;7.07;;;3.43;;
10880;SDS011;5493;48.884;8.338;2024-03-29T13:58:46;6.43;;;1.50;;
10880;SDS011;5493;48.884;8.338;2024-03-29T14:01:14;3.47;;;2.77;;
10880;SDS011;5493;48.884;8.338;2024-03-29T14:03:40;2.47;;;1.80;;
10880;SDS011;5493;48.884;8.338;2024-03-29T14:06:07;1.67;;;1.17;;
10880;SDS011;5493;48.884;8.338;2024-03-29T14:08:33;1.97;;;1.27;;
10880;SDS011;5493;48.884;8.338;2024-03-29T14:11:00;2.60;;;1.73;;
10880;SDS011;5493;48.884;8.338;2024-03-29T14:13:27;2.10;;;1.40;;
10880;SDS011;5493;48.884;8.338;2024-03-29T14:15:54;3.23;;;1.60;;
10880;SDS011;5493;48.884;8.338;2024-03-29T14:18:22;4.43;;;2.67;;
10880;SDS011;5493;48.884;8.338;2024-03-29T14:20:48;1.97;;;1.60;;
10880;SDS011;5493;48.884;8.338;2024-03-29T14:23:16;2.03;;;1.50;;
10880;SDS011;5493;48.884;8.338;2024-03-29T14:25:44;3.13;;;1.70;;
10880;SDS011;5493;48.884;8.338;2024-03-29T14:28:11;2.67;;;1.43;;
10880;SDS011;5493;48.884;8.338;2024-03-29T14:30:37;1.87;;;1.10;;
10880;SDS011;5493;48.884;8.338;2024-03-29T14:33:04;3.13;;;1.27;;
10880;SDS011;5493;48.884;8.338;2024-03-29T14:35:34;2.13;;;1.40;;
10880;SDS011;5493;48.884;8.338;2024-03-29T14:38:01;6.97;;;1.57;;
10880;SDS011;5493;48.884;8.338;2024-03-29T14:40:27;3.57;;;1.23;;
10880;SDS011;5493;48.884;8.338;2024-03-29T14:42:54;2.67;;;1.30;;
10880;SDS011;5493;48.884;8.338;2024-03-29T14:45:23;2.03;;;1.10;;
10880;SDS011;5493;48.884;8.338;2024-03-29T14:47:49;1.90;;;1.27;;
10880;SDS011;5493;48.884;8.338;2024-03-29T14:50:16;1.97;;;1.27;;
10880;SDS011;5493;48.884;8.338;2024-03-29T14:52:45;3.60;;;1.80;;
10880;SDS011;5493;48.884;8.338;2024-03-29T14:55:11;2.63;;;1.80;;
10880;SDS011;5493;48.884;8.338;2024-03-29T14:57:38;2.63;;;1.43;;
10880;SDS011;5493;48.884;8.338;2024-03-29T15:00:04;4.07;;;1.30;;